sensor_id;sensor_type;location;lat;lon;timestamp;temperature;humidity
21678;DHT22;11000;50.360;7.582;2022-10-22T00:00:56;14.80;99.90
21678;DHT22;11000;50.360;7.582;2022-10-22T00:03:17;14.80;99.90
21678;DHT22;11000;50.360;7.582;2022-10-22T00:05:37;14.80;99.90
21678;DHT22;11000;50.360;7.582;2022-10-22T00:07:58;14.70;99.90
21678;DHT22;11000;50.360;7.582;2022-10-22T00:10:18;14.70;99.90
21678;DHT22;11000;50.360;7.582;2022-10-22T00:12:39;14.70;99.90
21678;DHT22;11000;50.360;7.582;2022-10-22T00:14:59;14.70;99.90
21678;DHT22;11000;50.360;7.582;2022-10-22T00:17:20;14.70;99.90
21678;DHT22;11000;50.360;7.582;2022-10-22T00:19:41;14.70;99.90
21678;DHT22;11000;50.360;7.582;2022-10-22T00:22:01;14.60;99.90
21678;DHT22;11000;50.360;7.582;2022-10-22T00:24:25;14.60;99.90
21678;DHT22;11000;50.360;7.582;2022-10-22T00:26:45;14.60;99.90
21678;DHT22;11000;50.360;7.582;2022-10-22T00:29:06;14.60;99.90
21678;DHT22;11000;50.360;7.582;2022-10-22T00:31:26;14.60;99.90
21678;DHT22;11000;50.360;7.582;2022-10-22T00:33:47;14.70;99.90
21678;DHT22;11000;50.360;7.582;2022-10-22T00:36:07;14.60;99.90
21678;DHT22;11000;50.360;7.582;2022-10-22T00:38:28;14.60;99.90
21678;DHT22;11000;50.360;7.582;2022-10-22T00:40:49;14.60;99.90
21678;DHT22;11000;50.360;7.582;2022-10-22T00:43:11;14.60;99.90
21678;DHT22;11000;50.360;7.582;2022-10-22T00:45:31;14.70;99.90
21678;DHT22;11000;50.360;7.582;2022-10-22T00:48:10;14.60;99.90
21678;DHT22;11000;50.360;7.582;2022-10-22T00:53:09;14.70;99.90
21678;DHT22;11000;50.360;7.582;2022-10-22T00:55:31;14.70;99.90
21678;DHT22;11000;50.360;7.582;2022-10-22T00:57:53;14.60;99.90
21678;DHT22;11000;50.360;7.582;2022-10-22T01:00:16;14.50;99.90
21678;DHT22;11000;50.360;7.582;2022-10-22T01:02:36;14.50;99.90
21678;DHT22;11000;50.360;7.582;2022-10-22T01:04:57;14.50;99.90
21678;DHT22;11000;50.360;7.582;2022-10-22T01:07:20;14.50;99.90
21678;DHT22;11000;50.360;7.582;2022-10-22T01:12:53;14.60;99.90
21678;DHT22;11000;50.360;7.582;2022-10-22T01:18:05;14.60;99.90
21678;DHT22;11000;50.360;7.582;2022-10-22T01:28:57;14.60;99.90
21678;DHT22;11000;50.360;7.582;2022-10-22T01:31:21;14.60;99.90
21678;DHT22;11000;50.360;7.582;2022-10-22T01:33:44;14.60;99.90
21678;DHT22;11000;50.360;7.582;2022-10-22T01:36:06;14.60;99.90
21678;DHT22;11000;50.360;7.582;2022-10-22T01:38:28;14.60;99.90
21678;DHT22;11000;50.360;7.582;2022-10-22T01:40:50;14.60;99.90
21678;DHT22;11000;50.360;7.582;2022-10-22T01:43:11;14.50;99.90
21678;DHT22;11000;50.360;7.582;2022-10-22T01:45:58;14.50;99.90
21678;DHT22;11000;50.360;7.582;2022-10-22T01:48:44;14.50;99.90
21678;DHT22;11000;50.360;7.582;2022-10-22T01:54:16;14.50;99.90
21678;DHT22;11000;50.360;7.582;2022-10-22T01:57:22;14.50;99.90
21678;DHT22;11000;50.360;7.582;2022-10-22T02:00:06;14.40;99.90
21678;DHT22;11000;50.360;7.582;2022-10-22T02:07:24;14.40;99.90
21678;DHT22;11000;50.360;7.582;2022-10-22T02:09:46;14.40;99.90
21678;DHT22;11000;50.360;7.582;2022-10-22T02:12:09;14.40;99.90
21678;DHT22;11000;50.360;7.582;2022-10-22T02:14:33;14.30;99.90
21678;DHT22;11000;50.360;7.582;2022-10-22T02:16:56;14.30;99.90
21678;DHT22;11000;50.360;7.582;2022-10-22T02:19:26;14.30;99.90
21678;DHT22;11000;50.360;7.582;2022-10-22T02:21:47;14.30;99.90
21678;DHT22;11000;50.360;7.582;2022-10-22T02:24:07;14.30;99.90
21678;DHT22;11000;50.360;7.582;2022-10-22T02:26:34;14.30;99.90
21678;DHT22;11000;50.360;7.582;2022-10-22T02:29:05;14.30;99.90
21678;DHT22;11000;50.360;7.582;2022-10-22T02:31:30;14.30;99.90
21678;DHT22;11000;50.360;7.582;2022-10-22T02:33:54;14.30;99.90
21678;DHT22;11000;50.360;7.582;2022-10-22T02:36:17;14.30;99.90
21678;DHT22;11000;50.360;7.582;2022-10-22T02:38:39;14.40;99.90
21678;DHT22;11000;50.360;7.582;2022-10-22T02:41:00;14.40;99.90
21678;DHT22;11000;50.360;7.582;2022-10-22T02:43:23;14.40;99.90
21678;DHT22;11000;50.360;7.582;2022-10-22T02:45:45;14.40;99.90
21678;DHT22;11000;50.360;7.582;2022-10-22T02:48:06;14.40;99.90
21678;DHT22;11000;50.360;7.582;2022-10-22T02:50:26;14.40;99.90
21678;DHT22;11000;50.360;7.582;2022-10-22T02:52:47;14.40;99.90
21678;DHT22;11000;50.360;7.582;2022-10-22T02:55:08;14.40;99.90
21678;DHT22;11000;50.360;7.582;2022-10-22T02:57:29;14.40;99.90
21678;DHT22;11000;50.360;7.582;2022-10-22T02:59:49;14.40;99.90
21678;DHT22;11000;50.360;7.582;2022-10-22T03:02:10;14.40;99.90
21678;DHT22;11000;50.360;7.582;2022-10-22T03:04:30;14.40;99.90
21678;DHT22;11000;50.360;7.582;2022-10-22T03:06:51;14.50;99.90
21678;DHT22;11000;50.360;7.582;2022-10-22T03:09:11;14.40;99.90
21678;DHT22;11000;50.360;7.582;2022-10-22T03:11:32;14.50;99.90
21678;DHT22;11000;50.360;7.582;2022-10-22T03:13:52;14.40;99.90
21678;DHT22;11000;50.360;7.582;2022-10-22T03:16:12;14.50;99.90
21678;DHT22;11000;50.360;7.582;2022-10-22T03:18:33;14.50;99.90
21678;DHT22;11000;50.360;7.582;2022-10-22T03:21:03;14.50;99.90
21678;DHT22;11000;50.360;7.582;2022-10-22T03:23:25;14.50;99.90
21678;DHT22;11000;50.360;7.582;2022-10-22T03:25:47;14.40;99.90
21678;DHT22;11000;50.360;7.582;2022-10-22T03:28:10;14.40;99.90
21678;DHT22;11000;50.360;7.582;2022-10-22T03:30:33;14.40;99.90
21678;DHT22;11000;50.360;7.582;2022-10-22T03:32:53;14.40;99.90
21678;DHT22;11000;50.360;7.582;2022-10-22T03:35:14;14.40;99.90
21678;DHT22;11000;50.360;7.582;2022-10-22T03:37:35;14.40;99.90
21678;DHT22;11000;50.360;7.582;2022-10-22T03:39:56;14.40;99.90
21678;DHT22;11000;50.360;7.582;2022-10-22T03:42:17;14.40;99.90
21678;DHT22;11000;50.360;7.582;2022-10-22T03:44:38;14.50;99.90
21678;DHT22;11000;50.360;7.582;2022-10-22T03:46:59;14.50;99.90
21678;DHT22;11000;50.360;7.582;2022-10-22T03:49:20;14.50;99.90
21678;DHT22;11000;50.360;7.582;2022-10-22T03:51:40;14.50;99.90
21678;DHT22;11000;50.360;7.582;2022-10-22T03:54:02;14.60;99.90
21678;DHT22;11000;50.360;7.582;2022-10-22T03:56:23;14.50;99.90
21678;DHT22;11000;50.360;7.582;2022-10-22T03:58:43;14.60;99.90
21678;DHT22;11000;50.360;7.582;2022-10-22T04:01:08;14.70;99.90
21678;DHT22;11000;50.360;7.582;2022-10-22T04:03:29;14.80;99.90
21678;DHT22;11000;50.360;7.582;2022-10-22T04:05:49;14.90;99.90
21678;DHT22;11000;50.360;7.582;2022-10-22T04:08:10;14.90;99.90
21678;DHT22;11000;50.360;7.582;2022-10-22T04:10:30;14.80;99.90
21678;DHT22;11000;50.360;7.582;2022-10-22T04:12:51;14.90;99.90
21678;DHT22;11000;50.360;7.582;2022-10-22T04:15:11;14.80;99.90
21678;DHT22;11000;50.360;7.582;2022-10-22T04:17:34;14.80;99.90
21678;DHT22;11000;50.360;7.582;2022-10-22T04:19:54;14.70;99.90
21678;DHT22;11000;50.360;7.582;2022-10-22T04:22:15;14.80;99.90
21678;DHT22;11000;50.360;7.582;2022-10-22T04:24:36;14.80;99.90
21678;DHT22;11000;50.360;7.582;2022-10-22T04:26:57;14.80;99.90
21678;DHT22;11000;50.360;7.582;2022-10-22T04:29:17;14.80;99.90
21678;DHT22;11000;50.360;7.582;2022-10-22T04:31:38;14.90;99.90
21678;DHT22;11000;50.360;7.582;2022-10-22T04:33:59;14.90;99.90
21678;DHT22;11000;50.360;7.582;2022-10-22T04:36:20;14.90;99.90
21678;DHT22;11000;50.360;7.582;2022-10-22T04:38:43;14.90;99.90
21678;DHT22;11000;50.360;7.582;2022-10-22T04:41:14;14.90;99.90
21678;DHT22;11000;50.360;7.582;2022-10-22T04:43:35;14.90;99.90
21678;DHT22;11000;50.360;7.582;2022-10-22T04:45:59;14.90;99.90
21678;DHT22;11000;50.360;7.582;2022-10-22T04:48:19;14.90;99.90
21678;DHT22;11000;50.360;7.582;2022-10-22T04:50:40;14.90;99.90
21678;DHT22;11000;50.360;7.582;2022-10-22T04:53:00;14.80;99.90
21678;DHT22;11000;50.360;7.582;2022-10-22T04:55:21;14.80;99.90
21678;DHT22;11000;50.360;7.582;2022-10-22T04:57:41;14.80;99.90
21678;DHT22;11000;50.360;7.582;2022-10-22T05:00:03;14.80;99.90
21678;DHT22;11000;50.360;7.582;2022-10-22T05:02:24;14.80;99.90
21678;DHT22;11000;50.360;7.582;2022-10-22T05:04:44;14.80;99.90
21678;DHT22;11000;50.360;7.582;2022-10-22T05:07:05;14.80;99.90
21678;DHT22;11000;50.360;7.582;2022-10-22T05:09:25;14.80;99.90
21678;DHT22;11000;50.360;7.582;2022-10-22T05:11:49;14.70;99.90
21678;DHT22;11000;50.360;7.582;2022-10-22T05:14:11;14.60;99.90
21678;DHT22;11000;50.360;7.582;2022-10-22T05:16:33;14.70;99.90
21678;DHT22;11000;50.360;7.582;2022-10-22T05:18:54;14.70;99.90
21678;DHT22;11000;50.360;7.582;2022-10-22T05:21:17;14.60;99.90
21678;DHT22;11000;50.360;7.582;2022-10-22T05:23:38;14.60;99.90
21678;DHT22;11000;50.360;7.582;2022-10-22T05:26:02;14.60;99.90
21678;DHT22;11000;50.360;7.582;2022-10-22T05:28:23;14.60;99.90
21678;DHT22;11000;50.360;7.582;2022-10-22T05:30:52;14.60;99.90
21678;DHT22;11000;50.360;7.582;2022-10-22T05:33:16;14.60;99.90
21678;DHT22;11000;50.360;7.582;2022-10-22T05:35:36;14.60;99.90
21678;DHT22;11000;50.360;7.582;2022-10-22T05:37:56;14.70;99.90
21678;DHT22;11000;50.360;7.582;2022-10-22T05:40:17;14.70;99.90
21678;DHT22;11000;50.360;7.582;2022-10-22T05:42:38;14.70;99.90
21678;DHT22;11000;50.360;7.582;2022-10-22T05:44:58;14.80;99.90
21678;DHT22;11000;50.360;7.582;2022-10-22T05:47:19;14.90;99.90
21678;DHT22;11000;50.360;7.582;2022-10-22T05:49:39;14.90;99.90
21678;DHT22;11000;50.360;7.582;2022-10-22T05:52:00;14.90;99.90
21678;DHT22;11000;50.360;7.582;2022-10-22T05:54:20;14.90;99.90
21678;DHT22;11000;50.360;7.582;2022-10-22T05:56:44;14.90;99.90
21678;DHT22;11000;50.360;7.582;2022-10-22T05:59:05;14.90;99.90
21678;DHT22;11000;50.360;7.582;2022-10-22T06:01:29;14.90;99.90
21678;DHT22;11000;50.360;7.582;2022-10-22T06:03:53;14.90;99.90
21678;DHT22;11000;50.360;7.582;2022-10-22T06:06:26;14.80;99.90
21678;DHT22;11000;50.360;7.582;2022-10-22T06:08:49;14.80;99.90
21678;DHT22;11000;50.360;7.582;2022-10-22T06:11:10;14.80;99.90
21678;DHT22;11000;50.360;7.582;2022-10-22T06:13:30;14.80;99.90
21678;DHT22;11000;50.360;7.582;2022-10-22T06:15:52;14.80;99.90
21678;DHT22;11000;50.360;7.582;2022-10-22T06:18:12;14.90;99.90
21678;DHT22;11000;50.360;7.582;2022-10-22T06:20:34;14.90;99.90
21678;DHT22;11000;50.360;7.582;2022-10-22T06:22:54;14.90;99.90
21678;DHT22;11000;50.360;7.582;2022-10-22T06:25:15;14.90;99.90
21678;DHT22;11000;50.360;7.582;2022-10-22T06:27:35;15.00;99.90
21678;DHT22;11000;50.360;7.582;2022-10-22T06:29:56;15.00;99.90
21678;DHT22;11000;50.360;7.582;2022-10-22T06:32:16;15.00;99.90
21678;DHT22;11000;50.360;7.582;2022-10-22T06:34:37;15.00;99.90
21678;DHT22;11000;50.360;7.582;2022-10-22T06:36:57;15.10;99.90
21678;DHT22;11000;50.360;7.582;2022-10-22T06:39:18;15.10;99.90
21678;DHT22;11000;50.360;7.582;2022-10-22T06:41:39;15.10;99.90
21678;DHT22;11000;50.360;7.582;2022-10-22T06:43:59;15.10;99.90
21678;DHT22;11000;50.360;7.582;2022-10-22T06:46:21;15.20;99.90
21678;DHT22;11000;50.360;7.582;2022-10-22T06:48:42;15.20;99.90
21678;DHT22;11000;50.360;7.582;2022-10-22T06:51:04;15.20;99.90
21678;DHT22;11000;50.360;7.582;2022-10-22T06:53:24;15.20;99.90
21678;DHT22;11000;50.360;7.582;2022-10-22T06:55:45;15.20;99.90
21678;DHT22;11000;50.360;7.582;2022-10-22T06:58:05;15.30;99.90
21678;DHT22;11000;50.360;7.582;2022-10-22T07:00:26;15.30;99.90
21678;DHT22;11000;50.360;7.582;2022-10-22T07:02:50;15.30;99.90
21678;DHT22;11000;50.360;7.582;2022-10-22T07:05:12;15.40;99.90
21678;DHT22;11000;50.360;7.582;2022-10-22T07:07:32;15.40;99.90
21678;DHT22;11000;50.360;7.582;2022-10-22T07:09:53;15.40;99.90
21678;DHT22;11000;50.360;7.582;2022-10-22T07:12:14;15.40;99.90
21678;DHT22;11000;50.360;7.582;2022-10-22T07:14:35;15.40;99.90
21678;DHT22;11000;50.360;7.582;2022-10-22T07:16:56;15.40;99.90
21678;DHT22;11000;50.360;7.582;2022-10-22T07:19:16;15.50;99.90
21678;DHT22;11000;50.360;7.582;2022-10-22T07:21:37;15.50;99.90
21678;DHT22;11000;50.360;7.582;2022-10-22T07:23:58;15.50;99.90
21678;DHT22;11000;50.360;7.582;2022-10-22T07:26:19;15.60;99.90
21678;DHT22;11000;50.360;7.582;2022-10-22T07:28:40;15.60;99.90
21678;DHT22;11000;50.360;7.582;2022-10-22T07:31:00;15.60;99.90
21678;DHT22;11000;50.360;7.582;2022-10-22T07:33:21;15.60;99.90
21678;DHT22;11000;50.360;7.582;2022-10-22T07:35:41;15.60;99.90
21678;DHT22;11000;50.360;7.582;2022-10-22T07:38:02;15.70;99.90
21678;DHT22;11000;50.360;7.582;2022-10-22T07:40:23;15.70;99.90
21678;DHT22;11000;50.360;7.582;2022-10-22T07:42:43;15.80;99.90
21678;DHT22;11000;50.360;7.582;2022-10-22T07:45:04;15.80;99.90
21678;DHT22;11000;50.360;7.582;2022-10-22T07:47:25;15.80;99.90
21678;DHT22;11000;50.360;7.582;2022-10-22T07:49:45;15.80;99.90
21678;DHT22;11000;50.360;7.582;2022-10-22T07:52:06;15.80;99.90
21678;DHT22;11000;50.360;7.582;2022-10-22T07:54:27;15.90;99.90
21678;DHT22;11000;50.360;7.582;2022-10-22T07:56:47;16.00;99.90
21678;DHT22;11000;50.360;7.582;2022-10-22T07:59:08;16.20;99.90
21678;DHT22;11000;50.360;7.582;2022-10-22T08:01:28;16.30;99.90
21678;DHT22;11000;50.360;7.582;2022-10-22T08:03:49;16.40;99.90
21678;DHT22;11000;50.360;7.582;2022-10-22T08:06:12;16.30;99.90
21678;DHT22;11000;50.360;7.582;2022-10-22T08:08:34;16.30;99.90
21678;DHT22;11000;50.360;7.582;2022-10-22T08:10:56;16.20;99.90
21678;DHT22;11000;50.360;7.582;2022-10-22T08:13:18;16.30;99.90
21678;DHT22;11000;50.360;7.582;2022-10-22T08:15:39;16.30;99.90
21678;DHT22;11000;50.360;7.582;2022-10-22T08:18:00;16.40;99.90
21678;DHT22;11000;50.360;7.582;2022-10-22T08:20:21;16.50;99.90
21678;DHT22;11000;50.360;7.582;2022-10-22T08:22:41;16.50;99.90
21678;DHT22;11000;50.360;7.582;2022-10-22T08:25:02;16.60;99.90
21678;DHT22;11000;50.360;7.582;2022-10-22T08:27:23;16.60;99.90
21678;DHT22;11000;50.360;7.582;2022-10-22T08:29:44;16.70;99.90
21678;DHT22;11000;50.360;7.582;2022-10-22T08:32:04;16.70;99.90
21678;DHT22;11000;50.360;7.582;2022-10-22T08:34:25;16.80;99.90
21678;DHT22;11000;50.360;7.582;2022-10-22T08:36:46;16.90;99.90
21678;DHT22;11000;50.360;7.582;2022-10-22T08:39:06;16.90;99.90
21678;DHT22;11000;50.360;7.582;2022-10-22T08:41:27;16.80;99.90
21678;DHT22;11000;50.360;7.582;2022-10-22T08:49:28;16.70;99.90
21678;DHT22;11000;50.360;7.582;2022-10-22T08:51:58;16.80;99.90
21678;DHT22;11000;50.360;7.582;2022-10-22T08:57:28;16.80;99.90
21678;DHT22;11000;50.360;7.582;2022-10-22T09:00:01;16.80;99.90
21678;DHT22;11000;50.360;7.582;2022-10-22T09:07:43;17.10;99.90
21678;DHT22;11000;50.360;7.582;2022-10-22T09:10:10;17.20;99.90
21678;DHT22;11000;50.360;7.582;2022-10-22T09:12:31;17.20;99.90
21678;DHT22;11000;50.360;7.582;2022-10-22T09:14:51;17.20;99.90
21678;DHT22;11000;50.360;7.582;2022-10-22T09:17:35;17.30;99.90
21678;DHT22;11000;50.360;7.582;2022-10-22T09:20:10;17.40;99.90
21678;DHT22;11000;50.360;7.582;2022-10-22T09:22:47;17.40;99.90
21678;DHT22;11000;50.360;7.582;2022-10-22T09:25:19;17.50;99.90
21678;DHT22;11000;50.360;7.582;2022-10-22T09:27:40;17.60;99.90
21678;DHT22;11000;50.360;7.582;2022-10-22T09:30:00;17.60;99.90
21678;DHT22;11000;50.360;7.582;2022-10-22T09:32:21;17.70;99.90
21678;DHT22;11000;50.360;7.582;2022-10-22T09:34:46;17.70;99.90
21678;DHT22;11000;50.360;7.582;2022-10-22T09:37:08;17.60;99.90
21678;DHT22;11000;50.360;7.582;2022-10-22T09:39:33;17.60;99.90
21678;DHT22;11000;50.360;7.582;2022-10-22T09:41:54;17.60;99.90
21678;DHT22;11000;50.360;7.582;2022-10-22T09:44:17;17.70;99.90
21678;DHT22;11000;50.360;7.582;2022-10-22T09:46:38;17.70;99.90
21678;DHT22;11000;50.360;7.582;2022-10-22T09:49:11;17.70;99.90
21678;DHT22;11000;50.360;7.582;2022-10-22T09:51:49;17.80;99.90
21678;DHT22;11000;50.360;7.582;2022-10-22T09:54:21;17.90;99.90
21678;DHT22;11000;50.360;7.582;2022-10-22T09:56:56;18.00;99.90
21678;DHT22;11000;50.360;7.582;2022-10-22T09:59:23;18.10;99.90
21678;DHT22;11000;50.360;7.582;2022-10-22T10:01:44;18.30;99.90
21678;DHT22;11000;50.360;7.582;2022-10-22T10:04:11;18.50;99.90
21678;DHT22;11000;50.360;7.582;2022-10-22T10:06:33;18.50;99.90
21678;DHT22;11000;50.360;7.582;2022-10-22T10:08:54;18.70;99.90
21678;DHT22;11000;50.360;7.582;2022-10-22T10:13:59;18.70;99.90
21678;DHT22;11000;50.360;7.582;2022-10-22T10:16:40;18.70;99.90
21678;DHT22;11000;50.360;7.582;2022-10-22T10:19:29;18.60;99.90
21678;DHT22;11000;50.360;7.582;2022-10-22T10:21:56;18.60;99.90
21678;DHT22;11000;50.360;7.582;2022-10-22T10:24:45;18.70;99.90
21678;DHT22;11000;50.360;7.582;2022-10-22T10:27:12;18.70;99.90
21678;DHT22;11000;50.360;7.582;2022-10-22T10:35:30;18.70;99.90
21678;DHT22;11000;50.360;7.582;2022-10-22T10:38:23;18.60;99.90
21678;DHT22;11000;50.360;7.582;2022-10-22T10:41:32;18.60;99.90
21678;DHT22;11000;50.360;7.582;2022-10-22T10:46:44;18.60;99.90
21678;DHT22;11000;50.360;7.582;2022-10-22T10:49:09;18.60;99.90
21678;DHT22;11000;50.360;7.582;2022-10-22T10:51:41;18.60;99.90
21678;DHT22;11000;50.360;7.582;2022-10-22T10:56:47;18.50;99.90
21678;DHT22;11000;50.360;7.582;2022-10-22T10:59:42;18.30;99.90
21678;DHT22;11000;50.360;7.582;2022-10-22T11:05:14;18.20;99.90
21678;DHT22;11000;50.360;7.582;2022-10-22T11:07:46;18.10;99.90
21678;DHT22;11000;50.360;7.582;2022-10-22T11:10:28;18.10;99.90
21678;DHT22;11000;50.360;7.582;2022-10-22T11:12:49;18.10;99.90
21678;DHT22;11000;50.360;7.582;2022-10-22T11:17:41;18.10;99.90
21678;DHT22;11000;50.360;7.582;2022-10-22T11:20:15;18.20;99.90
21678;DHT22;11000;50.360;7.582;2022-10-22T11:22:42;18.20;99.90
21678;DHT22;11000;50.360;7.582;2022-10-22T11:27:39;18.40;99.90
21678;DHT22;11000;50.360;7.582;2022-10-22T11:30:07;18.60;99.90
21678;DHT22;11000;50.360;7.582;2022-10-22T11:32:30;18.90;99.90
21678;DHT22;11000;50.360;7.582;2022-10-22T11:34:58;19.00;99.90
21678;DHT22;11000;50.360;7.582;2022-10-22T11:37:21;19.20;99.90
21678;DHT22;11000;50.360;7.582;2022-10-22T11:40:09;19.20;99.90
21678;DHT22;11000;50.360;7.582;2022-10-22T11:42:37;19.20;99.90
21678;DHT22;11000;50.360;7.582;2022-10-22T11:44:59;19.30;99.90
21678;DHT22;11000;50.360;7.582;2022-10-22T11:47:24;19.40;99.90
21678;DHT22;11000;50.360;7.582;2022-10-22T11:50:16;19.50;99.90
21678;DHT22;11000;50.360;7.582;2022-10-22T11:52:40;19.60;99.90
21678;DHT22;11000;50.360;7.582;2022-10-22T11:55:02;19.70;99.90
21678;DHT22;11000;50.360;7.582;2022-10-22T11:57:35;19.80;99.90
21678;DHT22;11000;50.360;7.582;2022-10-22T11:59:59;20.00;99.90
21678;DHT22;11000;50.360;7.582;2022-10-22T12:02:39;20.00;99.90
21678;DHT22;11000;50.360;7.582;2022-10-22T12:07:56;20.00;99.90
21678;DHT22;11000;50.360;7.582;2022-10-22T12:10:24;19.80;99.90
21678;DHT22;11000;50.360;7.582;2022-10-22T12:12:54;19.60;99.90
21678;DHT22;11000;50.360;7.582;2022-10-22T12:15:24;19.50;99.90
21678;DHT22;11000;50.360;7.582;2022-10-22T12:17:46;19.70;99.90
21678;DHT22;11000;50.360;7.582;2022-10-22T12:20:11;19.60;99.90
21678;DHT22;11000;50.360;7.582;2022-10-22T12:22:33;19.90;99.90
21678;DHT22;11000;50.360;7.582;2022-10-22T12:24:59;20.00;99.90
21678;DHT22;11000;50.360;7.582;2022-10-22T12:27:34;20.30;99.90
21678;DHT22;11000;50.360;7.582;2022-10-22T12:29:57;20.40;99.90
21678;DHT22;11000;50.360;7.582;2022-10-22T12:32:19;20.40;99.90
21678;DHT22;11000;50.360;7.582;2022-10-22T12:34:48;20.60;99.90
21678;DHT22;11000;50.360;7.582;2022-10-22T12:37:09;20.70;99.90
21678;DHT22;11000;50.360;7.582;2022-10-22T12:39:30;20.70;99.90
21678;DHT22;11000;50.360;7.582;2022-10-22T12:41:54;20.70;99.90
21678;DHT22;11000;50.360;7.582;2022-10-22T12:44:16;20.70;99.90
21678;DHT22;11000;50.360;7.582;2022-10-22T12:46:37;20.70;99.90
21678;DHT22;11000;50.360;7.582;2022-10-22T12:49:07;20.80;99.90
21678;DHT22;11000;50.360;7.582;2022-10-22T12:51:30;20.60;99.90
21678;DHT22;11000;50.360;7.582;2022-10-22T12:53:52;20.50;99.90
21678;DHT22;11000;50.360;7.582;2022-10-22T12:56:20;20.40;99.90
21678;DHT22;11000;50.360;7.582;2022-10-22T12:58:47;20.20;99.90
21678;DHT22;11000;50.360;7.582;2022-10-22T13:01:13;20.00;99.90
21678;DHT22;11000;50.360;7.582;2022-10-22T13:03:37;19.90;99.90
21678;DHT22;11000;50.360;7.582;2022-10-22T13:06:24;19.90;99.90
21678;DHT22;11000;50.360;7.582;2022-10-22T13:11:19;19.60;99.90
21678;DHT22;11000;50.360;7.582;2022-10-22T13:13:43;19.50;99.90
21678;DHT22;11000;50.360;7.582;2022-10-22T13:18:37;19.40;99.90
21678;DHT22;11000;50.360;7.582;2022-10-22T13:21:00;19.50;99.90
21678;DHT22;11000;50.360;7.582;2022-10-22T13:23:25;19.40;99.90
21678;DHT22;11000;50.360;7.582;2022-10-22T13:25:56;19.40;99.90
21678;DHT22;11000;50.360;7.582;2022-10-22T13:28:20;19.40;99.90
21678;DHT22;11000;50.360;7.582;2022-10-22T13:30:57;19.50;99.90
21678;DHT22;11000;50.360;7.582;2022-10-22T13:33:29;19.40;99.90
21678;DHT22;11000;50.360;7.582;2022-10-22T13:35:54;19.40;99.90
21678;DHT22;11000;50.360;7.582;2022-10-22T13:38:18;19.40;99.90
21678;DHT22;11000;50.360;7.582;2022-10-22T13:40:39;19.40;99.90
21678;DHT22;11000;50.360;7.582;2022-10-22T13:43:00;19.50;99.90
21678;DHT22;11000;50.360;7.582;2022-10-22T13:45:21;19.50;99.90
21678;DHT22;11000;50.360;7.582;2022-10-22T13:47:49;19.50;99.90
21678;DHT22;11000;50.360;7.582;2022-10-22T13:50:13;19.50;99.90
21678;DHT22;11000;50.360;7.582;2022-10-22T13:52:39;19.60;99.90
21678;DHT22;11000;50.360;7.582;2022-10-22T13:55:08;19.70;99.90
21678;DHT22;11000;50.360;7.582;2022-10-22T13:57:31;19.70;99.90
21678;DHT22;11000;50.360;7.582;2022-10-22T13:59:52;19.70;99.90
21678;DHT22;11000;50.360;7.582;2022-10-22T14:02:13;19.70;99.90
21678;DHT22;11000;50.360;7.582;2022-10-22T14:04:35;19.80;99.90
21678;DHT22;11000;50.360;7.582;2022-10-22T14:06:59;19.90;99.90
21678;DHT22;11000;50.360;7.582;2022-10-22T14:09:20;19.90;99.90
21678;DHT22;11000;50.360;7.582;2022-10-22T14:11:40;19.90;99.90
21678;DHT22;11000;50.360;7.582;2022-10-22T14:14:02;19.80;99.90
21678;DHT22;11000;50.360;7.582;2022-10-22T14:16:26;19.80;99.90
21678;DHT22;11000;50.360;7.582;2022-10-22T14:18:47;19.80;99.90
21678;DHT22;11000;50.360;7.582;2022-10-22T14:21:10;20.00;99.90
21678;DHT22;11000;50.360;7.582;2022-10-22T14:23:34;20.20;99.90
21678;DHT22;11000;50.360;7.582;2022-10-22T14:25:57;20.30;99.90
21678;DHT22;11000;50.360;7.582;2022-10-22T14:28:17;20.40;99.90
21678;DHT22;11000;50.360;7.582;2022-10-22T14:30:39;20.50;99.90
21678;DHT22;11000;50.360;7.582;2022-10-22T14:33:00;20.20;99.90
21678;DHT22;11000;50.360;7.582;2022-10-22T14:35:21;20.20;99.90
21678;DHT22;11000;50.360;7.582;2022-10-22T14:37:42;20.10;99.90
21678;DHT22;11000;50.360;7.582;2022-10-22T14:40:03;20.00;99.90
21678;DHT22;11000;50.360;7.582;2022-10-22T14:42:24;20.00;99.90
21678;DHT22;11000;50.360;7.582;2022-10-22T14:44:45;19.90;99.90
21678;DHT22;11000;50.360;7.582;2022-10-22T14:47:06;19.80;99.90
21678;DHT22;11000;50.360;7.582;2022-10-22T14:49:26;19.80;99.90
21678;DHT22;11000;50.360;7.582;2022-10-22T14:51:47;19.80;99.90
21678;DHT22;11000;50.360;7.582;2022-10-22T14:54:07;19.70;99.90
21678;DHT22;11000;50.360;7.582;2022-10-22T14:56:28;19.60;99.90
21678;DHT22;11000;50.360;7.582;2022-10-22T14:58:49;19.60;99.90
21678;DHT22;11000;50.360;7.582;2022-10-22T15:01:09;19.60;99.90
21678;DHT22;11000;50.360;7.582;2022-10-22T15:03:30;19.60;99.90
21678;DHT22;11000;50.360;7.582;2022-10-22T15:05:51;19.60;99.90
21678;DHT22;11000;50.360;7.582;2022-10-22T15:08:13;19.70;99.90
21678;DHT22;11000;50.360;7.582;2022-10-22T15:10:34;19.60;99.90
21678;DHT22;11000;50.360;7.582;2022-10-22T15:12:55;19.60;99.90
21678;DHT22;11000;50.360;7.582;2022-10-22T15:15:15;19.60;99.90
21678;DHT22;11000;50.360;7.582;2022-10-22T15:17:36;19.60;99.90
21678;DHT22;11000;50.360;7.582;2022-10-22T15:19:56;19.70;99.90
21678;DHT22;11000;50.360;7.582;2022-10-22T15:22:20;19.70;99.90
21678;DHT22;11000;50.360;7.582;2022-10-22T15:24:41;19.60;99.90
21678;DHT22;11000;50.360;7.582;2022-10-22T15:27:04;19.60;99.90
21678;DHT22;11000;50.360;7.582;2022-10-22T15:29:25;19.60;99.90
21678;DHT22;11000;50.360;7.582;2022-10-22T15:31:49;19.50;99.90
21678;DHT22;11000;50.360;7.582;2022-10-22T15:34:11;19.40;99.90
21678;DHT22;11000;50.360;7.582;2022-10-22T15:36:31;19.40;99.90
21678;DHT22;11000;50.360;7.582;2022-10-22T15:38:52;19.30;99.90
21678;DHT22;11000;50.360;7.582;2022-10-22T15:41:12;19.20;99.90
21678;DHT22;11000;50.360;7.582;2022-10-22T15:43:33;19.10;99.90
21678;DHT22;11000;50.360;7.582;2022-10-22T15:48:27;19.00;99.90
21678;DHT22;11000;50.360;7.582;2022-10-22T15:50:48;18.90;99.90
21678;DHT22;11000;50.360;7.582;2022-10-22T15:53:09;18.80;99.90
21678;DHT22;11000;50.360;7.582;2022-10-22T15:55:29;18.70;99.90
21678;DHT22;11000;50.360;7.582;2022-10-22T15:57:53;18.60;99.90
21678;DHT22;11000;50.360;7.582;2022-10-22T16:00:14;18.60;99.90
21678;DHT22;11000;50.360;7.582;2022-10-22T16:02:35;18.50;99.90
21678;DHT22;11000;50.360;7.582;2022-10-22T16:04:56;18.50;99.90
21678;DHT22;11000;50.360;7.582;2022-10-22T16:07:18;18.50;99.90
21678;DHT22;11000;50.360;7.582;2022-10-22T16:09:38;18.40;99.90
21678;DHT22;11000;50.360;7.582;2022-10-22T16:11:59;18.30;99.90
21678;DHT22;11000;50.360;7.582;2022-10-22T16:14:21;18.20;99.90
21678;DHT22;11000;50.360;7.582;2022-10-22T16:16:44;18.10;99.90
21678;DHT22;11000;50.360;7.582;2022-10-22T16:19:05;18.10;99.90